PATA/TAL METAR and TAF weather

Enter ICAO airport designator
Station Type Date Time Source
PATA METAR 2021/03/06 01:52 UTC NOAA

PATA 060152Z 05005KT 10SM BKN090 M12/M19 A2955 RMK AO2 SLP015 T11171194


Station Type Date Time Source
PATA Decoded METAR 2021/03/06 01:52 UTC NOAA

TANANA CALHOUN MEMORIAL AIRPORT , AK, United States (PATA) 65-10N 152-06W 67M
Mar 05, 2021 - 08:52 PM EST / 2021.03.06 0152 UTC
Wind: from the NE (050 degrees) at 6 MPH (5 KT):0
Visibility: 10 mile(s):0
Sky conditions: mostly cloudy
Temperature: 10.9 F (-11.7 C)
Windchill: 1 F (-17 C):1
Dew Point: -2.9 F (-19.4 C)
Relative Humidity: 52%
Pressure (altimeter): 29.55 in. Hg (1000 hPa)
ob: PATA 060152Z 05005KT 10SM BKN090 M12/M19 A2955 RMK AO2 SLP015 T11171194
cycle: 2

Station Type Date Time Source
PATA TAF 2021/03/05 18:33 UTC NOAA

TAF PATA 051731Z 0518/0618 07005KT P6SM OVC030
FM060000 09008KT P6SM VCSH OVC050

Example: see airport list